Ho Chi Minh, Viet Nam

9:39 AM ICT on August 22, 2014 (GMT +0700)
Tansonnhat | Change Station
CLOSE
Current Station
Airport
Location: Ho Chi Minh,
Elevation: 62 ft
Nearby Weather Stations

Elev 62 ft 10.82 °N, 106.67 °E | Updated 9 minutes ago

Mostly Cloudy
Mostly Cloudy
90 °F
Feels Like 100 °F
N
2
Wind Variable Wind from Variable

Today
High -- | Low -- °F
--% Chance of Precip.
Yesterday
High -- | Low -- °F
Precip. -- in
5:43 AM 6:08 PM
Waning Crescent, 11% visible
Pressure 29.83 in
Visibility 3.7 miles
Clouds Mostly Cloudy 2000 ft
Heat Index 100 °F
Dew Point 75 °F
Humidity 62%
Rainfall 0.00 in
Snow Depth Not available.
UV 7 out of 12
Pollen Not available.
Air Quality Not available.
Flu Activity Not available.
METAR VVTS 220230Z VRB02KT 6000 BKN020 32/24 Q1010 NOSIG

More Conditions Fewer Conditions

Pressure 29.83 in
Visibility 3.7 miles
Clouds Mostly Cloudy 2000 ft
Heat Index 100 °F
Dew Point 75 °F
Humidity 62%
Rainfall 0.00 in
Snow Depth Not available.
UV 7 out of 12
Pollen Not available.
Air Quality Not available.
Flu Activity Not available.
METAR VVTS 220230Z VRB02KT 6000 BKN020 32/24 Q1010 NOSIG

More Conditions Fewer Conditions

10-Day Weather Forecast

Almanac

Astronomy

Aug. 22, 2014 Rise Set
Actual Time 5:43 AM ICT 6:08 PM ICT
Civil Twilight 5:22 AM ICT 6:30 PM ICT
Nautical Twilight 4:56 AM ICT 6:55 PM ICT
Astronomical Twilight 4:31 AM ICT 7:20 PM ICT
Moon 2:53 AM ICT 3:43 PM ICT
Length of Visible Light 13h 08m
Length of Day
12h 25m
Tomorrow will be 0m 33s shorter.
Waning Crescent, 11% of the Moon is Illuminated
Aug 21
Waning Crescent
Aug 25
New
Sep 2
First Quarter
Sep 8
Full
Sep 15
Last Quarter

Yesterday's Extremes

Country Highs Country Lows

Community

WunderPhotos

Upload Photos

1,746,109 photos uploaded!

WunderBlogs® & News

Nearby

Snow Depth

Not available.

Earthquake Activity

City Distance Mag. Time & Date
No recent earthquake activity has been reported nearby.
Minimum magnitude displayed is 2.5.

Coastal Water Temperatures

Place Temperature
No Stations Reporting

Nearby Weather Stations